createdAt,value
2022-11-22T00:02:26.701Z,88.57
2022-11-22T00:07:27.880Z,88.47
2022-11-22T00:12:29.989Z,88.26
2022-11-22T00:17:29.149Z,88.78
2022-11-22T00:22:29.310Z,88.68
2022-11-22T00:27:30.442Z,88.06
2022-11-22T00:32:31.562Z,88.37
2022-11-22T00:37:32.667Z,88.26
2022-11-22T00:42:34.810Z,88.57
2022-11-22T00:47:34.949Z,88.89
2022-11-22T00:52:34.044Z,89.40
2022-11-22T00:57:35.174Z,89.50
2022-11-22T01:02:37.274Z,90.01
2022-11-22T01:07:36.496Z,91.30
2022-11-22T01:12:37.601Z,91.81
2022-11-22T01:17:38.752Z,92.33
2022-11-22T01:22:40.937Z,92.22
2022-11-22T01:27:40.124Z,92.22
2022-11-22T01:32:41.277Z,91.71
2022-11-22T01:37:43.411Z,91.56
2022-11-22T01:42:43.565Z,91.66
2022-11-22T01:47:42.672Z,92.08
2022-11-22T01:52:43.784Z,91.97
2022-11-22T01:57:44.984Z,92.94
2022-11-22T02:02:46.170Z,93.46
2022-11-22T02:07:51.214Z,93.91
2022-11-22T02:12:48.397Z,94.49
2022-11-22T02:17:49.551Z,95.10
2022-11-22T02:22:50.691Z,94.80
2022-11-22T02:27:52.802Z,95.52
2022-11-22T02:32:51.993Z,95.93
2022-11-22T02:37:53.097Z,96.28
2022-11-22T02:42:54.240Z,97.21
2022-11-22T02:47:55.409Z,97.83
2022-11-22T02:52:56.567Z,97.63
2022-11-22T02:57:57.731Z,97.68
2022-11-22T03:02:58.829Z,98.55
2022-11-22T03:08:00.005Z,99.58
2022-11-22T03:13:01.082Z,99.99
2022-11-22T03:18:02.614Z,99.99
2022-11-22T03:23:02.726Z,99.99
2022-11-22T03:28:01.820Z,99.99
2022-11-22T03:33:02.930Z,99.99
2022-11-22T03:38:04.059Z,99.99
2022-11-22T03:43:05.238Z,99.99
2022-11-22T03:48:06.329Z,99.99
2022-11-22T03:53:07.490Z,99.99
2022-11-22T03:58:08.638Z,99.99
2022-11-22T04:03:09.724Z,99.99
2022-11-22T04:08:10.821Z,99.99
2022-11-22T04:13:11.907Z,99.99
2022-11-22T04:18:14.308Z,95.05
2022-11-22T04:23:13.502Z,97.58
2022-11-22T04:28:14.583Z,98.24
2022-11-22T04:33:16.669Z,98.97
2022-11-22T04:38:15.827Z,98.97
2022-11-22T04:43:17.900Z,98.97
2022-11-22T04:48:17.020Z,98.86
2022-11-22T04:53:18.151Z,98.66
2022-11-22T04:58:19.304Z,98.86
2022-11-22T05:03:20.459Z,97.67
2022-11-22T05:08:21.543Z,97.98
2022-11-22T05:13:22.814Z,98.60
2022-11-22T05:18:23.947Z,98.80
2022-11-22T05:23:25.103Z,97.77
2022-11-22T05:28:26.201Z,98.29
2022-11-22T05:33:27.271Z,95.96
2022-11-22T05:38:29.366Z,95.81
2022-11-22T05:43:28.537Z,96.53
2022-11-22T05:48:30.724Z,95.25
2022-11-22T05:53:29.819Z,95.56
2022-11-22T05:58:31.021Z,97.05
2022-11-22T06:03:32.133Z,98.70
2022-11-22T06:08:33.273Z,98.80
2022-11-22T06:13:34.370Z,99.11
2022-11-22T06:18:37.465Z,99.52
2022-11-22T06:23:37.591Z,99.99
2022-11-22T06:28:36.732Z,99.94
2022-11-22T06:33:39.927Z,97.98
2022-11-22T06:38:39.033Z,95.81
2022-11-22T06:43:46.780Z,95.67
2022-11-22T06:48:41.150Z,98.08
2022-11-22T06:53:49.754Z,99.01
2022-11-22T06:58:42.295Z,99.11
2022-11-22T07:03:44.423Z,99.01
2022-11-22T07:08:44.581Z,97.56
2022-11-22T07:13:43.739Z,95.20
2022-11-22T07:18:44.897Z,94.82
2022-11-22T07:23:47.061Z,94.10
2022-11-22T07:28:47.187Z,96.27
2022-11-22T07:33:48.394Z,97.56
2022-11-22T07:38:49.563Z,97.88
2022-11-22T07:43:48.688Z,97.01
2022-11-22T07:48:49.876Z,97.94
2022-11-22T07:53:51.014Z,97.67
2022-11-22T07:58:53.149Z,98.55
2022-11-22T08:03:52.281Z,97.94
2022-11-22T08:08:58.628Z,97.78
2022-11-22T08:13:53.448Z,95.10
2022-11-22T08:18:54.584Z,95.87
2022-11-22T08:23:56.743Z,97.01
2022-11-22T08:28:56.931Z,95.15
2022-11-22T08:33:56.020Z,88.76
2022-11-22T08:38:57.207Z,87.17
2022-11-22T08:43:59.331Z,87.38
2022-11-22T08:48:59.457Z,88.18
2022-11-22T08:53:58.541Z,88.18
2022-11-22T08:58:59.750Z,90.20
2022-11-22T09:04:02.961Z,92.49
2022-11-22T09:09:29.940Z,93.41
2022-11-22T09:14:02.198Z,92.59
2022-11-22T09:19:04.464Z,94.55
2022-11-22T09:24:03.923Z,94.20
2022-11-22T09:29:05.067Z,92.82
2022-11-22T09:34:06.241Z,91.44
2022-11-22T09:39:07.384Z,90.72
2022-11-22T09:44:08.543Z,91.17
2022-11-22T09:49:09.656Z,92.46
2022-11-22T09:54:11.785Z,90.41
2022-11-22T09:59:10.960Z,91.19
2022-11-22T10:04:13.116Z,87.79
2022-11-22T10:09:12.283Z,88.31
2022-11-22T10:14:13.493Z,84.69
2022-11-22T10:19:14.660Z,87.34
2022-11-22T10:24:15.904Z,89.34
2022-11-22T10:29:18.001Z,91.13
2022-11-22T10:34:17.140Z,90.34
2022-11-22T10:39:19.277Z,91.52
2022-11-22T10:44:18.390Z,92.34
2022-11-22T10:49:19.544Z,93.68
2022-11-22T10:54:21.694Z,92.55
2022-11-22T10:59:27.328Z,91.47
2022-11-22T11:04:22.866Z,89.23
2022-11-22T11:10:09.649Z,90.36
2022-11-22T11:14:22.877Z,90.06
2022-11-22T11:19:22.058Z,88.43
2022-11-22T11:24:23.195Z,86.38
2022-11-22T11:29:24.393Z,87.79
2022-11-22T11:34:25.517Z,87.51
2022-11-22T11:39:26.712Z,85.41
2022-11-22T11:44:28.204Z,84.14
2022-11-22T11:49:28.256Z,83.94
2022-11-22T11:54:27.531Z,81.23
2022-11-22T11:59:28.930Z,82.01
2022-11-22T12:04:28.761Z,79.86
2022-11-22T12:09:29.248Z,79.08
2022-11-22T12:14:42.926Z,79.86
2022-11-22T12:19:30.459Z,73.10
2022-11-22T12:25:03.206Z,75.38
2022-11-22T12:29:30.637Z,77.61
2022-11-22T12:34:33.019Z,78.56
2022-11-22T12:39:32.290Z,77.61
2022-11-22T12:44:34.500Z,74.63
2022-11-22T12:49:34.618Z,73.02
2022-11-22T12:54:33.917Z,73.33
2022-11-22T12:59:35.118Z,74.02
2022-11-22T13:04:36.310Z,74.49
2022-11-22T13:09:37.454Z,75.83
2022-11-22T13:14:39.675Z,74.66
2022-11-22T13:19:39.976Z,72.92
2022-11-22T13:24:40.100Z,77.23
2022-11-22T13:29:41.234Z,77.03
2022-11-22T13:34:41.376Z,79.18
2022-11-22T13:39:40.689Z,81.48
2022-11-22T13:44:42.881Z,80.96
2022-11-22T13:49:48.551Z,82.23
2022-11-22T13:54:42.025Z,83.05
2022-11-22T13:59:43.262Z,85.35
2022-11-22T14:04:44.400Z,87.10
2022-11-22T14:09:46.796Z,86.79
2022-11-22T14:14:46.919Z,87.20
2022-11-22T14:19:46.010Z,87.45
2022-11-22T14:24:47.164Z,87.45
2022-11-22T14:29:53.581Z,88.78
2022-11-22T14:34:48.293Z,90.00
2022-11-22T14:39:49.444Z,89.11
2022-11-22T14:44:51.597Z,88.70
2022-11-22T14:49:52.071Z,88.24
2022-11-22T14:54:52.293Z,89.31
2022-11-22T14:59:51.441Z,86.23
2022-11-22T15:09:10.957Z,88.18
2022-11-22T15:09:54.347Z,85.68
2022-11-22T15:14:54.679Z,87.51
2022-11-22T15:59:56.785Z,90.53
2022-11-22T16:06:09.337Z,90.06
2022-11-22T16:09:58.069Z,91.81
2022-11-22T16:14:58.447Z,89.95
2022-11-22T16:19:59.809Z,91.60
2022-11-22T16:25:01.032Z,91.03
2022-11-22T16:30:02.493Z,92.47
2022-11-22T16:35:27.600Z,93.19
2022-11-22T16:40:01.744Z,93.09
2022-11-22T16:45:04.426Z,91.96
2022-11-22T16:50:03.999Z,93.09
2022-11-22T16:55:04.473Z,91.34
2022-11-22T17:00:06.805Z,90.20
2022-11-22T17:05:07.232Z,91.54
2022-11-22T17:10:10.399Z,92.16
2022-11-22T17:15:07.639Z,91.48
2022-11-22T17:20:10.223Z,93.96
2022-11-22T17:25:10.129Z,93.96
2022-11-22T17:30:09.889Z,94.27
2022-11-22T17:35:10.253Z,95.40
2022-11-22T17:40:10.622Z,95.09
2022-11-22T17:45:10.069Z,95.30
2022-11-22T17:50:13.132Z,93.69
2022-11-22T17:55:14.471Z,93.38
2022-11-22T18:00:12.051Z,94.62
2022-11-22T18:05:13.542Z,93.69
2022-11-22T18:10:12.714Z,94.31
2022-11-22T18:15:13.881Z,94.52
2022-11-22T18:20:14.964Z,95.03
2022-11-22T18:25:17.310Z,90.80
2022-11-22T18:30:18.283Z,90.19
2022-11-22T18:35:18.755Z,89.42
2022-11-22T18:40:19.712Z,90.45
2022-11-22T18:45:20.348Z,90.45
2022-11-22T18:50:19.992Z,89.62
2022-11-22T18:55:19.624Z,88.39
2022-11-22T19:00:20.110Z,90.80
2022-11-22T19:05:25.817Z,92.55
2022-11-22T19:10:20.118Z,91.73
2022-11-22T19:15:21.588Z,93.49
2022-11-22T19:20:47.196Z,91.52
2022-11-22T19:25:24.581Z,88.02
2022-11-22T19:30:20.748Z,90.04
2022-11-22T19:35:20.290Z,90.80
2022-11-22T19:40:20.175Z,88.74
2022-11-22T19:45:20.589Z,90.49
2022-11-22T19:50:20.132Z,88.84
2022-11-22T19:55:20.043Z,89.46
2022-11-22T20:00:20.483Z,90.70
2022-11-22T20:05:21.965Z,91.77
2022-11-22T20:10:20.407Z,92.97
2022-11-22T20:15:23.622Z,93.38
2022-11-22T20:20:21.827Z,93.84
2022-11-22T20:25:22.204Z,92.29
2022-11-22T20:30:21.779Z,91.98
2022-11-22T20:35:21.286Z,92.50
2022-11-22T20:40:21.232Z,93.12
2022-11-22T20:45:20.779Z,93.84
2022-11-22T20:50:19.964Z,93.73
2022-11-22T20:55:21.130Z,94.60
2022-11-22T21:00:23.244Z,95.02
2022-11-22T21:05:22.456Z,95.53
2022-11-22T21:10:24.601Z,95.12
2022-11-22T21:15:22.988Z,94.60
2022-11-22T21:20:24.458Z,93.47
2022-11-22T21:25:25.625Z,92.85
2022-11-22T21:30:27.890Z,93.16
2022-11-22T21:35:27.032Z,93.05
2022-11-22T21:40:29.139Z,91.05
2022-11-22T21:45:28.279Z,92.02
2022-11-22T21:50:29.446Z,92.95
2022-11-22T21:55:32.561Z,92.74
2022-11-22T22:00:31.801Z,93.47
2022-11-22T22:05:33.971Z,92.85
2022-11-22T22:10:33.143Z,93.16
2022-11-22T22:15:34.404Z,93.68
2022-11-22T22:20:35.619Z,93.37
2022-11-22T22:25:36.759Z,93.57
2022-11-22T22:30:37.904Z,94.44
2022-11-22T22:35:40.427Z,93.93
2022-11-22T22:41:27.506Z,93.82
2022-11-22T22:45:40.733Z,94.09
2022-11-22T22:50:41.924Z,94.60
2022-11-22T22:55:43.077Z,95.12
2022-11-22T23:00:44.199Z,96.14
2022-11-22T23:05:45.335Z,96.34
2022-11-22T23:10:46.465Z,96.14
2022-11-22T23:15:57.744Z,95.48
2022-11-22T23:20:48.522Z,95.17
2022-11-22T23:25:47.682Z,95.48
2022-11-22T23:30:49.297Z,94.13
2022-11-22T23:35:50.648Z,95.27
2022-11-22T23:40:49.755Z,95.10
2022-11-22T23:45:50.895Z,95.52
2022-11-22T23:50:52.044Z,94.63
2022-11-22T23:55:53.137Z,94.53
